Weather reports worldwide

Advertisment
St.Catherine`s Point, United Kingdom (3866): temperature & dewpoint: 20.05.2020 14:00:00 - 26.05.2020 14:00:00 (BST)St.Catherine`s Point, United Kingdom (3866): wind speed & gusts: 20.05.2020 14:00:00 - 26.05.2020 14:00:00 (BST)St.Catherine`s Point, United Kingdom (3866): wind direction: 20.05.2020 14:00:00 - 26.05.2020 14:00:00 (BST)St.Catherine`s Point, United Kingdom (3866): reduced air pressure: 20.05.2020 14:00:00 - 26.05.2020 14:00:00 (BST)St.Catherine`s Point, United Kingdom (3866): precipitation: 20.05.2020 14:00:00 - 26.05.2020 14:00:00 (BST)
Date & Time tt [°C] td [°C] ff [km/h] ff [kn] fx [km/h] fx [kn] dd ppp [hPa] rr [mm]
26.05.2020 14:00:00 18,8 8,4 9 5 - - WSW 1036,1 0,0
26.05.2020 13:00:00 18,7 9,3 8 4 - - WSW 1036,1 0,0
26.05.2020 12:00:00 19,4 11,0 9 5 - - W 1036,3 0,0
26.05.2020 11:00:00 18,2 9,2 8 4 - - W 1036,4 0,0
26.05.2020 10:00:00 18,3 11,1 8 4 - - W 1036,3 0,0
26.05.2020 09:00:00 17,4 9,3 5 3 - - E 1036,3 0,0
26.05.2020 08:00:00 17,1 8,7 4 2 - - SSE 1036,0 0,0
26.05.2020 07:00:00 15,4 7,7 22 12 - - NNE 1035,4 0,0
26.05.2020 06:00:00 14,7 7,4 22 12 - - NNE 1035,3 0,0
26.05.2020 05:00:00 14,2 7,3 22 12 - - NNE 1035,1 0,0
26.05.2020 04:00:00 14,5 7,5 22 12 - - NNE 1034,8 0,0
26.05.2020 03:00:00 14,8 7,4 18 10 - - N 1034,8 0,0
26.05.2020 02:00:00 14,5 7,5 13 7 - - N 1034,9 0,0
26.05.2020 01:00:00 16,0 6,2 5 3 - - NW 1035,0 0,0
26.05.2020 00:00:00 16,6 4,8 13 7 - - NNW 1035,0 0,0
25.05.2020 23:00:00 14,9 3,4 16 9 - - NW 1034,8 0,0
25.05.2020 22:00:00 14,8 5,0 18 10 - - NW 1034,8 0,0
25.05.2020 21:00:00 15,1 4,0 15 8 - - WNW 1034,5 0,0
25.05.2020 20:00:00 15,1 6,7 9 5 - - W 1034,4 0,0
25.05.2020 19:00:00 15,1 7,8 13 7 - - W 1034,7 0,0
25.05.2020 18:00:00 15,5 9,1 9 5 - - WSW 1034,9 0,0
25.05.2020 17:00:00 15,3 9,4 8 4 - - WSW 1034,9 0,0
25.05.2020 16:00:00 15,6 9,2 9 5 - - WSW 1035,1 0,0
25.05.2020 15:00:00 15,9 8,7 5 3 - - ESE 1035,2 0,0
25.05.2020 14:00:00 16,2 9,7 5 3 - - SSE 1035,3 0,0
25.05.2020 13:00:00 16,5 10,3 5 3 - - SE 1035,5 0,0
25.05.2020 12:00:00 17,4 9,9 8 4 - - ESE 1035,2 0,0
25.05.2020 11:00:00 17,7 10,5 9 5 - - E 1035,1 0,0
25.05.2020 10:00:00 15,5 8,9 4 2 - - SE 1035,3 0,0
25.05.2020 09:00:00 15,4 7,1 5 3 - - WSW 1035,1 0,0
25.05.2020 08:00:00 15,2 7,4 11 6 - - NE 1034,7 0,0
25.05.2020 07:00:00 13,2 6,7 24 13 - - NNE 1034,3 0,0
25.05.2020 06:00:00 12,4 7,2 28 15 - - NNE 1034,0 0,0
25.05.2020 05:00:00 12,2 7,1 28 15 - - NNE 1033,8 0,0
25.05.2020 04:00:00 12,0 5,3 24 13 - - NNE 1033,7 0,0
25.05.2020 03:00:00 12,5 2,7 22 12 - - N 1033,5 0,0
25.05.2020 02:00:00 14,6 1,2 22 12 - - NNW 1033,7 0,0
25.05.2020 01:00:00 14,8 2,5 21 11 - - N 1033,7 0,0
25.05.2020 00:00:00 12,8 5,1 16 9 - - NW 1033,8 0,0
24.05.2020 23:00:00 12,3 10,3 15 8 - - NW 1033,7 0,0
24.05.2020 22:00:00 12,6 11,4 18 10 - - WNW 1033,6 0,0
24.05.2020 21:00:00 12,8 11,0 16 9 - - WNW 1033,4 0,0
24.05.2020 20:00:00 13,3 10,8 16 9 - - WNW 1033,3 0,0
24.05.2020 19:00:00 13,7 10,8 16 9 - - WNW 1032,9 0,0
24.05.2020 18:00:00 14,3 10,9 16 9 - - WNW 1033,0 0,0
24.05.2020 17:00:00 15,0 11,3 16 9 - - W 1032,9 0,0
24.05.2020 16:00:00 15,2 10,9 22 12 - - W 1032,5 0,0
24.05.2020 15:00:00 15,5 11,2 16 9 - - W 1032,8 0,0
24.05.2020 14:00:00 14,8 10,7 22 12 - - W 1032,5 0,0
24.05.2020 13:00:00 14,6 11,0 28 15 - - W 1032,6 0,0
24.05.2020 12:00:00 14,0 10,7 31 17 - - W 1032,2 0,0
24.05.2020 11:00:00 14,2 11,1 29 16 - - W 1032,1 0,0
24.05.2020 10:00:00 13,8 11,0 34 18 - - W 1031,8 0,0
24.05.2020 09:00:00 13,4 10,2 28 15 - - W 1031,7 0,0
24.05.2020 08:00:00 12,6 10,2 28 15 - - W 1031,4 0,0
24.05.2020 07:00:00 12,5 10,2 29 16 - - W 1030,9 0,0
24.05.2020 06:00:00 11,9 9,7 26 14 - - W 1030,4 0,0
24.05.2020 05:00:00 12,1 9,5 26 14 - - W 1030,0 0,0
24.05.2020 04:00:00 11,9 9,2 28 15 - - W 1030,1 0,0
24.05.2020 03:00:00 12,0 8,5 29 16 46 25 W 1029,7 0,0
24.05.2020 02:00:00 12,1 8,2 34 18 48 26 W 1029,7 0,0
24.05.2020 01:00:00 12,2 7,6 35 19 46 25 W 1029,7 0,0
24.05.2020 00:00:00 12,4 7,3 31 17 46 25 W 1029,3 0,0
23.05.2020 23:00:00 12,5 8,0 35 19 48 26 W 1028,5 0,0
23.05.2020 22:00:00 12,4 10,1 42 23 55 30 W 1028,0 0,0
23.05.2020 21:00:00 12,5 10,4 44 24 57 31 W 1027,4 0,0
23.05.2020 20:00:00 12,6 10,1 44 24 59 32 W 1027,3 0,0
23.05.2020 19:00:00 13,0 9,8 48 26 63 34 W 1026,6 0,0
23.05.2020 18:00:00 13,5 10,0 48 26 65 35 W 1026,3 0,0
23.05.2020 17:00:00 13,8 10,1 50 27 67 36 W 1026,2 0,0
23.05.2020 16:00:00 13,8 9,9 54 29 68 37 WSW 1025,6 0,0
23.05.2020 15:00:00 13,6 9,7 54 29 70 38 WSW 1025,2 0,0
23.05.2020 14:00:00 13,4 9,7 52 28 65 35 WSW 1024,7 0,0
23.05.2020 13:00:00 13,7 9,6 46 25 61 33 WSW 1024,8 0,0
23.05.2020 12:00:00 13,9 9,8 44 24 61 33 W 1024,4 0,0
23.05.2020 11:00:00 13,7 10,4 41 22 57 31 W 1023,9 0,0
23.05.2020 10:00:00 13,5 10,3 44 24 55 30 W 1023,7 0,0
23.05.2020 09:00:00 12,9 10,0 41 22 54 29 W 1023,1 0,0
23.05.2020 08:00:00 12,5 10,1 42 23 54 29 WSW 1022,7 0,0
23.05.2020 07:00:00 12,2 9,8 42 23 54 29 WSW 1022,4 0,0
23.05.2020 06:00:00 12,1 9,8 41 22 50 27 WSW 1022,1 0,0
23.05.2020 05:00:00 12,1 10,0 41 22 50 27 WSW 1021,6 0,0
23.05.2020 04:00:00 12,0 10,0 35 19 46 25 W 1021,3 0,0
23.05.2020 03:00:00 12,2 10,4 37 20 48 26 WSW 1021,4 0,0
23.05.2020 02:00:00 12,3 10,6 39 21 50 27 WSW 1021,2 0,0
23.05.2020 01:00:00 12,3 10,5 39 21 50 27 W 1021,2 0,0
23.05.2020 00:00:00 12,4 10,6 37 20 52 28 WSW 1021,1 0,0
22.05.2020 23:00:00 12,4 10,6 35 19 52 28 W 1020,8 0,0
22.05.2020 22:00:00 12,5 10,4 39 21 52 28 W 1020,5 0,0
22.05.2020 21:00:00 12,7 10,4 42 23 57 31 WSW 1020,1 0,0
22.05.2020 20:00:00 13,0 10,7 48 26 57 31 WSW 1019,7 0,0
22.05.2020 19:00:00 12,9 10,7 44 24 57 31 WSW 1019,4 0,0
22.05.2020 18:00:00 13,1 10,6 39 21 52 28 WSW 1019,2 0,0
22.05.2020 17:00:00 13,6 10,7 41 22 52 28 WSW 1019,5 0,0
22.05.2020 16:00:00 13,5 10,6 39 21 48 26 WSW 1019,4 0,0
22.05.2020 15:00:00 13,9 11,0 39 21 48 26 WSW 1019,2 0,0
22.05.2020 14:00:00 13,8 11,2 39 21 46 25 WSW 1018,7 0,0
22.05.2020 13:00:00 13,8 11,2 35 19 - - WSW 1018,7 0,0
22.05.2020 12:00:00 13,8 11,3 39 21 50 27 WSW 1017,9 0,0
22.05.2020 11:00:00 13,5 11,6 37 20 46 25 WSW 1017,2 0,0
22.05.2020 10:00:00 13,3 12,0 35 19 46 25 WSW 1016,5 0,0
22.05.2020 09:00:00 13,3 12,4 37 20 48 26 WSW 1015,7 0,0
22.05.2020 08:00:00 13,2 12,5 34 18 46 25 WSW 1015,1 0,0
22.05.2020 07:00:00 13,1 12,2 34 18 - - WSW 1014,6 0,0
22.05.2020 06:00:00 13,4 12,1 37 20 57 31 WSW 1014,3 0,0
22.05.2020 05:00:00 14,1 10,6 42 23 52 28 WSW 1013,9 0,0
22.05.2020 04:00:00 14,9 9,6 24 13 - - WSW 1013,8 0,0
22.05.2020 03:00:00 15,1 10,8 9 5 - - SW 1013,8 0,0
22.05.2020 02:00:00 15,3 9,7 5 3 - - E 1014,2 0,0
22.05.2020 01:00:00 14,8 9,3 15 8 - - ENE 1014,7 0,0
22.05.2020 00:00:00 14,4 8,2 18 10 - - ENE 1015,0 0,0
21.05.2020 23:00:00 14,4 8,0 16 9 - - ENE 1016,2 0,0
21.05.2020 22:00:00 13,3 9,2 11 6 - - ENE 1016,9 0,0
21.05.2020 21:00:00 12,9 10,7 8 4 - - E 1017,4 0,0
21.05.2020 20:00:00 14,3 11,9 4 2 - - E 1017,5 0,0
21.05.2020 19:00:00 15,5 11,0 5 3 - - W 1018,1 0,0
21.05.2020 18:00:00 15,6 11,5 5 3 - - W 1018,5 0,0
21.05.2020 17:00:00 16,6 10,6 11 6 - - W 1019,1 0,0
21.05.2020 16:00:00 16,6 10,6 21 11 - - WNW 1019,3 0,0
21.05.2020 15:00:00 16,4 11,4 13 7 - - W 1020,0 0,0
21.05.2020 14:00:00 16,6 11,7 15 8 - - W 1020,4 0,0
21.05.2020 13:00:00 17,2 11,7 16 9 - - W 1020,5 0,0
21.05.2020 12:00:00 17,7 11,7 15 8 - - W 1020,5 0,0
21.05.2020 11:00:00 16,2 11,3 16 9 - - WNW 1020,2 0,0
21.05.2020 10:00:00 16,0 11,0 21 11 - - WNW 1020,2 0,0
21.05.2020 09:00:00 15,8 11,0 21 11 - - WNW 1019,9 0,0
21.05.2020 08:00:00 15,1 11,6 9 5 - - W 1019,6 0,0
21.05.2020 07:00:00 14,9 11,2 11 6 - - NNE 1018,8 0,0
21.05.2020 06:00:00 14,1 10,2 11 6 - - NW 1019,3 0,0
21.05.2020 05:00:00 14,4 11,4 4 2 - - E 1018,8 0,0
21.05.2020 04:00:00 15,6 11,4 13 7 - - ENE 1018,5 0,0
21.05.2020 03:00:00 14,7 10,4 16 9 - - ENE 1018,9 0,0
21.05.2020 02:00:00 13,7 9,9 16 9 - - ENE 1019,5 0,0
21.05.2020 01:00:00 13,8 7,7 16 9 - - ENE 1019,8 0,0
21.05.2020 00:00:00 12,4 9,6 13 7 - - ENE 1020,1 0,0
20.05.2020 23:00:00 12,4 9,6 15 8 - - ENE 1020,3 0,0
20.05.2020 22:00:00 11,9 7,7 15 8 - - ENE 1020,3 0,0
20.05.2020 21:00:00 11,4 7,2 13 7 - - ENE 1020,2 0,0
20.05.2020 20:00:00 14,7 10,7 5 3 - - E 1020,1 0,0
20.05.2020 19:00:00 16,1 11,3 5 3 - - E 1020,1 0,0
20.05.2020 18:00:00 16,5 12,0 4 2 - - E 1020,5 0,0
20.05.2020 17:00:00 15,8 12,2 8 4 - - ESE 1020,9 0,0
20.05.2020 16:00:00 14,8 11,8 5 3 - - SE 1021,3 0,0
20.05.2020 15:00:00 15,5 12,7 8 4 - - SE 1021,6 0,0
20.05.2020 14:00:00 14,9 12,0 5 3 - - SSE 1022,1 0,0

tt = temperature
td = dewpoint
ff = wind speed
fx = gusts
dd = wind direction
ppp = reduced air pressure
rr = precipitation

Next stations